sensor_id;sensor_type;location;lat;lon;timestamp;P1;durP1;ratioP1;P2;durP2;ratioP2
27925;SDS011;15267;47.838;12.128;2023-09-19T00:01:33;1.00;;;0.90;;
27925;SDS011;15267;47.838;12.128;2023-09-19T00:03:59;1.88;;;0.88;;
27925;SDS011;15267;47.838;12.128;2023-09-19T00:06:28;2.08;;;1.15;;
27925;SDS011;15267;47.838;12.128;2023-09-19T00:08:56;2.58;;;1.40;;
27925;SDS011;15267;47.838;12.128;2023-09-19T00:11:23;2.47;;;1.05;;
27925;SDS011;15267;47.838;12.128;2023-09-19T00:13:51;1.98;;;1.00;;
27925;SDS011;15267;47.838;12.128;2023-09-19T00:16:17;5.43;;;1.08;;
27925;SDS011;15267;47.838;12.128;2023-09-19T00:18:44;3.08;;;1.17;;
27925;SDS011;15267;47.838;12.128;2023-09-19T00:21:10;1.52;;;0.90;;
27925;SDS011;15267;47.838;12.128;2023-09-19T00:23:36;1.17;;;0.90;;
27925;SDS011;15267;47.838;12.128;2023-09-19T00:26:02;3.05;;;1.02;;
27925;SDS011;15267;47.838;12.128;2023-09-19T00:28:29;2.85;;;1.25;;
27925;SDS011;15267;47.838;12.128;2023-09-19T00:30:55;3.53;;;1.00;;
27925;SDS011;15267;47.838;12.128;2023-09-19T00:33:22;2.15;;;1.02;;
27925;SDS011;15267;47.838;12.128;2023-09-19T00:35:49;2.03;;;1.10;;
27925;SDS011;15267;47.838;12.128;2023-09-19T00:38:16;2.75;;;1.20;;
27925;SDS011;15267;47.838;12.128;2023-09-19T00:40:46;1.52;;;1.00;;
27925;SDS011;15267;47.838;12.128;2023-09-19T00:43:12;1.67;;;0.90;;
27925;SDS011;15267;47.838;12.128;2023-09-19T00:45:38;5.03;;;1.30;;
27925;SDS011;15267;47.838;12.128;2023-09-19T00:48:07;1.95;;;1.20;;
27925;SDS011;15267;47.838;12.128;2023-09-19T00:50:34;2.22;;;1.25;;
27925;SDS011;15267;47.838;12.128;2023-09-19T00:53:00;2.55;;;1.10;;
27925;SDS011;15267;47.838;12.128;2023-09-19T00:55:26;2.92;;;1.00;;
27925;SDS011;15267;47.838;12.128;2023-09-19T00:57:57;2.58;;;1.30;;
27925;SDS011;15267;47.838;12.128;2023-09-19T01:00:23;2.58;;;1.15;;
27925;SDS011;15267;47.838;12.128;2023-09-19T01:02:49;3.72;;;1.00;;
27925;SDS011;15267;47.838;12.128;2023-09-19T01:05:15;2.33;;;1.10;;
27925;SDS011;15267;47.838;12.128;2023-09-19T01:07:42;2.40;;;1.05;;
27925;SDS011;15267;47.838;12.128;2023-09-19T01:10:11;1.50;;;1.05;;
27925;SDS011;15267;47.838;12.128;2023-09-19T01:15:27;2.70;;;1.02;;
27925;SDS011;15267;47.838;12.128;2023-09-19T01:18:00;2.38;;;1.20;;
27925;SDS011;15267;47.838;12.128;2023-09-19T01:20:33;1.67;;;1.10;;
27925;SDS011;15267;47.838;12.128;2023-09-19T01:23:10;1.45;;;1.00;;
27925;SDS011;15267;47.838;12.128;2023-09-19T01:25:44;1.40;;;0.80;;
27925;SDS011;15267;47.838;12.128;2023-09-19T01:31:01;2.20;;;1.00;;
27925;SDS011;15267;47.838;12.128;2023-09-19T01:33:28;2.30;;;1.30;;
27925;SDS011;15267;47.838;12.128;2023-09-19T01:35:59;2.70;;;1.23;;
27925;SDS011;15267;47.838;12.128;2023-09-19T01:38:24;3.70;;;1.00;;
27925;SDS011;15267;47.838;12.128;2023-09-19T01:41:01;1.25;;;0.90;;
27925;SDS011;15267;47.838;12.128;2023-09-19T01:43:32;1.83;;;1.10;;
27925;SDS011;15267;47.838;12.128;2023-09-19T01:46:14;2.30;;;1.20;;
27925;SDS011;15267;47.838;12.128;2023-09-19T01:48:49;2.53;;;1.13;;
27925;SDS011;15267;47.838;12.128;2023-09-19T01:51:21;1.95;;;1.10;;
27925;SDS011;15267;47.838;12.128;2023-09-19T01:54:00;1.02;;;0.90;;
27925;SDS011;15267;47.838;12.128;2023-09-19T01:56:30;2.13;;;1.00;;
27925;SDS011;15267;47.838;12.128;2023-09-19T01:59:01;2.95;;;1.10;;
27925;SDS011;15267;47.838;12.128;2023-09-19T02:01:29;2.17;;;1.08;;
27925;SDS011;15267;47.838;12.128;2023-09-19T02:03:55;2.28;;;1.23;;
27925;SDS011;15267;47.838;12.128;2023-09-19T02:06:21;1.83;;;1.27;;
27925;SDS011;15267;47.838;12.128;2023-09-19T02:08:47;2.03;;;1.05;;
27925;SDS011;15267;47.838;12.128;2023-09-19T02:11:15;2.17;;;1.27;;
27925;SDS011;15267;47.838;12.128;2023-09-19T02:13:42;2.22;;;1.10;;
27925;SDS011;15267;47.838;12.128;2023-09-19T02:16:09;2.33;;;1.30;;
27925;SDS011;15267;47.838;12.128;2023-09-19T02:18:35;4.35;;;1.48;;
27925;SDS011;15267;47.838;12.128;2023-09-19T02:21:02;2.42;;;1.20;;
27925;SDS011;15267;47.838;12.128;2023-09-19T02:23:29;4.68;;;1.20;;
27925;SDS011;15267;47.838;12.128;2023-09-19T02:25:55;3.10;;;1.60;;
27925;SDS011;15267;47.838;12.128;2023-09-19T02:28:25;7.15;;;1.90;;
27925;SDS011;15267;47.838;12.128;2023-09-19T02:30:54;1.80;;;1.50;;
27925;SDS011;15267;47.838;12.128;2023-09-19T02:33:21;5.00;;;1.63;;
27925;SDS011;15267;47.838;12.128;2023-09-19T02:35:47;2.67;;;1.48;;
27925;SDS011;15267;47.838;12.128;2023-09-19T02:38:13;2.78;;;1.80;;
27925;SDS011;15267;47.838;12.128;2023-09-19T02:40:43;3.00;;;1.70;;
27925;SDS011;15267;47.838;12.128;2023-09-19T02:43:09;3.78;;;1.55;;
27925;SDS011;15267;47.838;12.128;2023-09-19T02:45:35;3.25;;;1.50;;
27925;SDS011;15267;47.838;12.128;2023-09-19T02:48:01;3.63;;;1.90;;
27925;SDS011;15267;47.838;12.128;2023-09-19T02:50:27;2.42;;;1.60;;
27925;SDS011;15267;47.838;12.128;2023-09-19T02:52:53;2.55;;;1.50;;
27925;SDS011;15267;47.838;12.128;2023-09-19T02:55:19;2.47;;;1.40;;
27925;SDS011;15267;47.838;12.128;2023-09-19T02:57:53;2.28;;;1.70;;
27925;SDS011;15267;47.838;12.128;2023-09-19T03:00:22;3.72;;;1.80;;
27925;SDS011;15267;47.838;12.128;2023-09-19T03:02:49;3.40;;;1.95;;
27925;SDS011;15267;47.838;12.128;2023-09-19T03:05:16;4.20;;;1.95;;
27925;SDS011;15267;47.838;12.128;2023-09-19T03:07:43;3.20;;;2.03;;
27925;SDS011;15267;47.838;12.128;2023-09-19T03:10:11;8.07;;;2.03;;
27925;SDS011;15267;47.838;12.128;2023-09-19T03:12:37;3.88;;;2.10;;
27925;SDS011;15267;47.838;12.128;2023-09-19T03:15:05;4.28;;;2.42;;
27925;SDS011;15267;47.838;12.128;2023-09-19T03:17:33;3.78;;;2.10;;
27925;SDS011;15267;47.838;12.128;2023-09-19T03:19:59;3.08;;;2.20;;
27925;SDS011;15267;47.838;12.128;2023-09-19T03:22:26;2.97;;;2.30;;
27925;SDS011;15267;47.838;12.128;2023-09-19T03:24:52;4.07;;;2.03;;
27925;SDS011;15267;47.838;12.128;2023-09-19T03:27:18;3.22;;;2.00;;
27925;SDS011;15267;47.838;12.128;2023-09-19T03:29:45;4.70;;;1.98;;
27925;SDS011;15267;47.838;12.128;2023-09-19T03:32:11;2.58;;;1.70;;
27925;SDS011;15267;47.838;12.128;2023-09-19T03:34:37;3.60;;;1.92;;
27925;SDS011;15267;47.838;12.128;2023-09-19T03:37:08;2.10;;;1.77;;
27925;SDS011;15267;47.838;12.128;2023-09-19T03:39:34;2.88;;;1.67;;
27925;SDS011;15267;47.838;12.128;2023-09-19T03:42:00;6.30;;;1.80;;
27925;SDS011;15267;47.838;12.128;2023-09-19T03:44:27;3.53;;;1.90;;
27925;SDS011;15267;47.838;12.128;2023-09-19T03:46:53;2.90;;;2.05;;
27925;SDS011;15267;47.838;12.128;2023-09-19T03:49:21;2.78;;;1.85;;
27925;SDS011;15267;47.838;12.128;2023-09-19T03:51:47;3.40;;;1.80;;
27925;SDS011;15267;47.838;12.128;2023-09-19T03:54:13;2.20;;;1.83;;
27925;SDS011;15267;47.838;12.128;2023-09-19T03:56:39;2.95;;;1.70;;
27925;SDS011;15267;47.838;12.128;2023-09-19T03:59:05;3.67;;;1.67;;
27925;SDS011;15267;47.838;12.128;2023-09-19T04:01:31;4.50;;;1.80;;
27925;SDS011;15267;47.838;12.128;2023-09-19T04:03:58;2.22;;;1.70;;
27925;SDS011;15267;47.838;12.128;2023-09-19T04:06:32;2.95;;;1.90;;
27925;SDS011;15267;47.838;12.128;2023-09-19T04:09:00;3.58;;;2.00;;
27925;SDS011;15267;47.838;12.128;2023-09-19T04:11:26;4.45;;;1.73;;
27925;SDS011;15267;47.838;12.128;2023-09-19T04:13:52;4.60;;;1.50;;
27925;SDS011;15267;47.838;12.128;2023-09-19T04:16:18;3.70;;;1.88;;
27925;SDS011;15267;47.838;12.128;2023-09-19T04:18:44;2.92;;;1.80;;
27925;SDS011;15267;47.838;12.128;2023-09-19T04:21:11;2.65;;;1.90;;
27925;SDS011;15267;47.838;12.128;2023-09-19T04:23:37;3.10;;;1.80;;
27925;SDS011;15267;47.838;12.128;2023-09-19T04:26:03;2.65;;;1.73;;
27925;SDS011;15267;47.838;12.128;2023-09-19T04:28:29;2.00;;;1.58;;
27925;SDS011;15267;47.838;12.128;2023-09-19T04:30:55;4.28;;;1.85;;
27925;SDS011;15267;47.838;12.128;2023-09-19T04:33:22;2.60;;;1.83;;
27925;SDS011;15267;47.838;12.128;2023-09-19T04:35:49;4.15;;;1.75;;
27925;SDS011;15267;47.838;12.128;2023-09-19T04:38:15;2.17;;;1.75;;
27925;SDS011;15267;47.838;12.128;2023-09-19T04:40:41;4.00;;;1.92;;
27925;SDS011;15267;47.838;12.128;2023-09-19T04:43:07;5.90;;;2.10;;
27925;SDS011;15267;47.838;12.128;2023-09-19T04:45:33;2.72;;;1.90;;
27925;SDS011;15267;47.838;12.128;2023-09-19T04:47:59;1.92;;;1.60;;
27925;SDS011;15267;47.838;12.128;2023-09-19T04:50:25;3.67;;;2.30;;
27925;SDS011;15267;47.838;12.128;2023-09-19T04:52:52;2.95;;;1.92;;
27925;SDS011;15267;47.838;12.128;2023-09-19T04:55:19;3.88;;;2.10;;
27925;SDS011;15267;47.838;12.128;2023-09-19T04:57:45;3.40;;;1.95;;
27925;SDS011;15267;47.838;12.128;2023-09-19T05:00:13;4.55;;;1.98;;
27925;SDS011;15267;47.838;12.128;2023-09-19T05:02:39;3.05;;;2.30;;
27925;SDS011;15267;47.838;12.128;2023-09-19T05:05:06;2.30;;;1.70;;
27925;SDS011;15267;47.838;12.128;2023-09-19T05:07:33;3.47;;;1.90;;
27925;SDS011;15267;47.838;12.128;2023-09-19T05:09:59;3.13;;;1.73;;
27925;SDS011;15267;47.838;12.128;2023-09-19T05:12:28;4.07;;;1.88;;
27925;SDS011;15267;47.838;12.128;2023-09-19T05:14:54;4.43;;;1.90;;
27925;SDS011;15267;47.838;12.128;2023-09-19T05:17:20;2.78;;;1.85;;
27925;SDS011;15267;47.838;12.128;2023-09-19T05:19:46;2.95;;;1.63;;
27925;SDS011;15267;47.838;12.128;2023-09-19T05:22:13;4.35;;;1.92;;
27925;SDS011;15267;47.838;12.128;2023-09-19T05:24:39;4.65;;;1.80;;
27925;SDS011;15267;47.838;12.128;2023-09-19T05:27:05;3.83;;;1.70;;
27925;SDS011;15267;47.838;12.128;2023-09-19T05:29:32;3.30;;;1.90;;
27925;SDS011;15267;47.838;12.128;2023-09-19T05:31:58;2.45;;;1.65;;
27925;SDS011;15267;47.838;12.128;2023-09-19T05:34:24;4.07;;;1.95;;
27925;SDS011;15267;47.838;12.128;2023-09-19T05:36:55;3.88;;;1.80;;
27925;SDS011;15267;47.838;12.128;2023-09-19T05:39:21;3.30;;;2.10;;
27925;SDS011;15267;47.838;12.128;2023-09-19T05:41:47;3.30;;;1.85;;
27925;SDS011;15267;47.838;12.128;2023-09-19T05:44:13;3.65;;;1.80;;
27925;SDS011;15267;47.838;12.128;2023-09-19T05:46:39;3.55;;;1.70;;
27925;SDS011;15267;47.838;12.128;2023-09-19T05:49:05;2.67;;;1.70;;
27925;SDS011;15267;47.838;12.128;2023-09-19T05:51:31;2.10;;;1.75;;
27925;SDS011;15267;47.838;12.128;2023-09-19T05:53:57;3.92;;;1.90;;
27925;SDS011;15267;47.838;12.128;2023-09-19T05:56:23;3.17;;;2.13;;
27925;SDS011;15267;47.838;12.128;2023-09-19T05:58:49;4.82;;;1.70;;
27925;SDS011;15267;47.838;12.128;2023-09-19T06:01:17;2.38;;;1.70;;
27925;SDS011;15267;47.838;12.128;2023-09-19T06:03:43;3.78;;;2.05;;
27925;SDS011;15267;47.838;12.128;2023-09-19T06:06:09;2.88;;;1.85;;
27925;SDS011;15267;47.838;12.128;2023-09-19T06:08:35;3.17;;;1.70;;
27925;SDS011;15267;47.838;12.128;2023-09-19T06:11:01;3.20;;;1.90;;
27925;SDS011;15267;47.838;12.128;2023-09-19T06:13:28;3.25;;;1.60;;
27925;SDS011;15267;47.838;12.128;2023-09-19T06:15:54;5.10;;;1.88;;
27925;SDS011;15267;47.838;12.128;2023-09-19T06:18:21;3.15;;;1.90;;
27925;SDS011;15267;47.838;12.128;2023-09-19T06:20:51;6.38;;;1.83;;
27925;SDS011;15267;47.838;12.128;2023-09-19T06:23:17;4.88;;;1.70;;
27925;SDS011;15267;47.838;12.128;2023-09-19T06:25:45;2.28;;;1.60;;
27925;SDS011;15267;47.838;12.128;2023-09-19T06:28:11;3.13;;;1.75;;
27925;SDS011;15267;47.838;12.128;2023-09-19T06:30:37;5.88;;;1.70;;
27925;SDS011;15267;47.838;12.128;2023-09-19T06:33:07;4.22;;;1.67;;
27925;SDS011;15267;47.838;12.128;2023-09-19T06:35:33;2.88;;;1.73;;
27925;SDS011;15267;47.838;12.128;2023-09-19T06:38:02;2.45;;;1.70;;
27925;SDS011;15267;47.838;12.128;2023-09-19T06:40:28;5.38;;;2.00;;
27925;SDS011;15267;47.838;12.128;2023-09-19T06:42:56;5.30;;;2.00;;
27925;SDS011;15267;47.838;12.128;2023-09-19T06:45:22;5.68;;;1.90;;
27925;SDS011;15267;47.838;12.128;2023-09-19T06:47:51;3.72;;;1.80;;
27925;SDS011;15267;47.838;12.128;2023-09-19T06:50:22;3.17;;;1.63;;
27925;SDS011;15267;47.838;12.128;2023-09-19T06:52:52;2.45;;;1.60;;
27925;SDS011;15267;47.838;12.128;2023-09-19T06:55:19;4.10;;;1.90;;
27925;SDS011;15267;47.838;12.128;2023-09-19T06:57:45;3.55;;;1.80;;
27925;SDS011;15267;47.838;12.128;2023-09-19T07:00:11;3.15;;;1.77;;
27925;SDS011;15267;47.838;12.128;2023-09-19T07:02:43;2.33;;;1.80;;
27925;SDS011;15267;47.838;12.128;2023-09-19T07:05:09;2.15;;;1.48;;
27925;SDS011;15267;47.838;12.128;2023-09-19T07:07:35;1.50;;;1.38;;
27925;SDS011;15267;47.838;12.128;2023-09-19T07:10:04;3.22;;;1.63;;
27925;SDS011;15267;47.838;12.128;2023-09-19T07:12:30;2.60;;;1.60;;
27925;SDS011;15267;47.838;12.128;2023-09-19T07:14:57;2.05;;;1.45;;
27925;SDS011;15267;47.838;12.128;2023-09-19T07:17:23;3.33;;;1.60;;
27925;SDS011;15267;47.838;12.128;2023-09-19T07:19:49;3.22;;;1.55;;
27925;SDS011;15267;47.838;12.128;2023-09-19T07:22:16;3.55;;;1.85;;
27925;SDS011;15267;47.838;12.128;2023-09-19T07:24:41;2.30;;;1.50;;
27925;SDS011;15267;47.838;12.128;2023-09-19T07:27:07;3.80;;;1.50;;
27925;SDS011;15267;47.838;12.128;2023-09-19T07:29:33;3.60;;;1.63;;
27925;SDS011;15267;47.838;12.128;2023-09-19T07:31:59;2.03;;;1.40;;
27925;SDS011;15267;47.838;12.128;2023-09-19T07:34:25;6.97;;;1.80;;
27925;SDS011;15267;47.838;12.128;2023-09-19T07:36:51;2.80;;;1.45;;
27925;SDS011;15267;47.838;12.128;2023-09-19T07:39:17;2.22;;;1.70;;
27925;SDS011;15267;47.838;12.128;2023-09-19T07:41:43;8.85;;;1.67;;
27925;SDS011;15267;47.838;12.128;2023-09-19T07:44:09;2.38;;;1.48;;
27925;SDS011;15267;47.838;12.128;2023-09-19T07:46:35;2.80;;;1.58;;
27925;SDS011;15267;47.838;12.128;2023-09-19T07:49:01;5.13;;;1.48;;
27925;SDS011;15267;47.838;12.128;2023-09-19T07:51:27;5.32;;;1.60;;
27925;SDS011;15267;47.838;12.128;2023-09-19T07:53:54;2.72;;;1.50;;
27925;SDS011;15267;47.838;12.128;2023-09-19T07:56:20;3.38;;;1.58;;
27925;SDS011;15267;47.838;12.128;2023-09-19T07:58:47;3.33;;;1.20;;
27925;SDS011;15267;47.838;12.128;2023-09-19T08:01:13;2.10;;;1.30;;
27925;SDS011;15267;47.838;12.128;2023-09-19T08:03:41;2.80;;;1.65;;
27925;SDS011;15267;47.838;12.128;2023-09-19T08:06:08;3.70;;;1.70;;
27925;SDS011;15267;47.838;12.128;2023-09-19T08:08:34;2.60;;;1.40;;
27925;SDS011;15267;47.838;12.128;2023-09-19T08:11:04;2.92;;;1.58;;
27925;SDS011;15267;47.838;12.128;2023-09-19T08:13:40;2.22;;;1.35;;
27925;SDS011;15267;47.838;12.128;2023-09-19T08:16:12;1.67;;;1.00;;
27925;SDS011;15267;47.838;12.128;2023-09-19T08:18:40;2.10;;;1.23;;
27925;SDS011;15267;47.838;12.128;2023-09-19T08:21:06;1.80;;;1.13;;
27925;SDS011;15267;47.838;12.128;2023-09-19T08:23:39;8.43;;;1.90;;
27925;SDS011;15267;47.838;12.128;2023-09-19T08:26:05;9.00;;;2.47;;
27925;SDS011;15267;47.838;12.128;2023-09-19T08:28:33;3.65;;;1.35;;
27925;SDS011;15267;47.838;12.128;2023-09-19T08:31:02;1.83;;;1.17;;
27925;SDS011;15267;47.838;12.128;2023-09-19T08:33:32;51.60;;;5.40;;
27925;SDS011;15267;47.838;12.128;2023-09-19T08:35:58;11.68;;;1.95;;
27925;SDS011;15267;47.838;12.128;2023-09-19T08:38:24;4.53;;;1.30;;
27925;SDS011;15267;47.838;12.128;2023-09-19T08:40:56;1.85;;;1.27;;
27925;SDS011;15267;47.838;12.128;2023-09-19T08:43:23;2.63;;;1.23;;
27925;SDS011;15267;47.838;12.128;2023-09-19T08:45:49;3.22;;;1.23;;
27925;SDS011;15267;47.838;12.128;2023-09-19T08:48:27;3.72;;;1.30;;
27925;SDS011;15267;47.838;12.128;2023-09-19T08:51:03;1.25;;;1.10;;
27925;SDS011;15267;47.838;12.128;2023-09-19T08:55:59;2.03;;;1.50;;
27925;SDS011;15267;47.838;12.128;2023-09-19T08:58:31;2.67;;;1.10;;
27925;SDS011;15267;47.838;12.128;2023-09-19T09:01:00;1.92;;;1.10;;
27925;SDS011;15267;47.838;12.128;2023-09-19T09:03:27;1.80;;;1.13;;
27925;SDS011;15267;47.838;12.128;2023-09-19T09:05:58;5.40;;;1.40;;
27925;SDS011;15267;47.838;12.128;2023-09-19T09:08:25;2.55;;;1.20;;
27925;SDS011;15267;47.838;12.128;2023-09-19T09:10:51;6.82;;;1.42;;
27925;SDS011;15267;47.838;12.128;2023-09-19T09:13:17;3.83;;;1.38;;
27925;SDS011;15267;47.838;12.128;2023-09-19T09:15:43;2.65;;;1.30;;
27925;SDS011;15267;47.838;12.128;2023-09-19T09:18:10;2.75;;;1.10;;
27925;SDS011;15267;47.838;12.128;2023-09-19T09:20:36;2.20;;;1.10;;
27925;SDS011;15267;47.838;12.128;2023-09-19T09:23:02;2.28;;;1.10;;
27925;SDS011;15267;47.838;12.128;2023-09-19T09:28:18;4.47;;;1.10;;
27925;SDS011;15267;47.838;12.128;2023-09-19T09:30:45;1.10;;;0.90;;
27925;SDS011;15267;47.838;12.128;2023-09-19T09:33:11;1.45;;;0.93;;
27925;SDS011;15267;47.838;12.128;2023-09-19T09:35:59;2.55;;;0.90;;
27925;SDS011;15267;47.838;12.128;2023-09-19T09:38:29;1.65;;;1.20;;
27925;SDS011;15267;47.838;12.128;2023-09-19T09:40:59;4.80;;;1.13;;
27925;SDS011;15267;47.838;12.128;2023-09-19T09:46:07;1.75;;;1.13;;
27925;SDS011;15267;47.838;12.128;2023-09-19T09:51:48;2.45;;;0.98;;
27925;SDS011;15267;47.838;12.128;2023-09-19T09:54:25;1.80;;;1.10;;
27925;SDS011;15267;47.838;12.128;2023-09-19T09:56:58;0.70;;;0.70;;
27925;SDS011;15267;47.838;12.128;2023-09-19T10:02:21;1.05;;;0.70;;
27925;SDS011;15267;47.838;12.128;2023-09-19T10:04:53;1.80;;;0.70;;
27925;SDS011;15267;47.838;12.128;2023-09-19T10:07:39;2.05;;;0.77;;
27925;SDS011;15267;47.838;12.128;2023-09-19T10:10:07;1.25;;;0.60;;
27925;SDS011;15267;47.838;12.128;2023-09-19T10:15:07;0.98;;;0.60;;
27925;SDS011;15267;47.838;12.128;2023-09-19T10:17:36;1.25;;;0.75;;
27925;SDS011;15267;47.838;12.128;2023-09-19T10:20:02;4.72;;;0.70;;
27925;SDS011;15267;47.838;12.128;2023-09-19T10:22:47;1.10;;;0.70;;
27925;SDS011;15267;47.838;12.128;2023-09-19T10:25:22;2.75;;;0.70;;
27925;SDS011;15267;47.838;12.128;2023-09-19T10:27:49;1.20;;;0.70;;
27925;SDS011;15267;47.838;12.128;2023-09-19T10:30:17;1.40;;;0.80;;
27925;SDS011;15267;47.838;12.128;2023-09-19T10:32:43;2.75;;;0.80;;
27925;SDS011;15267;47.838;12.128;2023-09-19T10:35:12;1.77;;;0.70;;
27925;SDS011;15267;47.838;12.128;2023-09-19T10:37:40;1.73;;;0.82;;
27925;SDS011;15267;47.838;12.128;2023-09-19T10:40:06;4.13;;;0.80;;
27925;SDS011;15267;47.838;12.128;2023-09-19T10:42:33;0.70;;;0.43;;
27925;SDS011;15267;47.838;12.128;2023-09-19T10:45:03;1.73;;;0.75;;
27925;SDS011;15267;47.838;12.128;2023-09-19T10:47:33;0.60;;;0.60;;
27925;SDS011;15267;47.838;12.128;2023-09-19T10:49:59;1.75;;;0.80;;
27925;SDS011;15267;47.838;12.128;2023-09-19T10:52:25;3.25;;;0.65;;
27925;SDS011;15267;47.838;12.128;2023-09-19T10:54:53;0.75;;;0.70;;
27925;SDS011;15267;47.838;12.128;2023-09-19T10:57:23;2.20;;;0.80;;
27925;SDS011;15267;47.838;12.128;2023-09-19T11:00:02;1.40;;;0.70;;
27925;SDS011;15267;47.838;12.128;2023-09-19T11:05:32;2.80;;;0.95;;
27925;SDS011;15267;47.838;12.128;2023-09-19T11:07:59;1.80;;;1.02;;
27925;SDS011;15267;47.838;12.128;2023-09-19T11:10:48;3.00;;;0.88;;
27925;SDS011;15267;47.838;12.128;2023-09-19T11:13:27;1.83;;;0.70;;
27925;SDS011;15267;47.838;12.128;2023-09-19T11:26:47;2.90;;;0.70;;
27925;SDS011;15267;47.838;12.128;2023-09-19T11:29:29;1.42;;;0.60;;
27925;SDS011;15267;47.838;12.128;2023-09-19T11:31:56;2.13;;;0.70;;
27925;SDS011;15267;47.838;12.128;2023-09-19T11:39:37;1.70;;;0.70;;
27925;SDS011;15267;47.838;12.128;2023-09-19T11:44:52;1.08;;;0.60;;
27925;SDS011;15267;47.838;12.128;2023-09-19T11:47:21;2.15;;;0.90;;
27925;SDS011;15267;47.838;12.128;2023-09-19T11:49:49;1.25;;;0.80;;
27925;SDS011;15267;47.838;12.128;2023-09-19T11:52:21;1.08;;;0.70;;
27925;SDS011;15267;47.838;12.128;2023-09-19T11:54:54;3.10;;;0.80;;
27925;SDS011;15267;47.838;12.128;2023-09-19T11:57:21;1.60;;;0.90;;
27925;SDS011;15267;47.838;12.128;2023-09-19T11:59:48;1.10;;;0.70;;
27925;SDS011;15267;47.838;12.128;2023-09-19T12:02:17;1.48;;;0.90;;
27925;SDS011;15267;47.838;12.128;2023-09-19T12:04:46;1.30;;;0.82;;
27925;SDS011;15267;47.838;12.128;2023-09-19T12:07:16;2.13;;;0.80;;
27925;SDS011;15267;47.838;12.128;2023-09-19T12:09:44;1.27;;;0.80;;
27925;SDS011;15267;47.838;12.128;2023-09-19T12:12:19;1.88;;;0.85;;
27925;SDS011;15267;47.838;12.128;2023-09-19T12:14:49;3.40;;;0.90;;
27925;SDS011;15267;47.838;12.128;2023-09-19T12:17:18;0.73;;;0.70;;
27925;SDS011;15267;47.838;12.128;2023-09-19T12:19:51;1.30;;;0.70;;
27925;SDS011;15267;47.838;12.128;2023-09-19T12:22:17;0.70;;;0.70;;
27925;SDS011;15267;47.838;12.128;2023-09-19T12:24:45;1.77;;;0.73;;
27925;SDS011;15267;47.838;12.128;2023-09-19T12:27:11;1.75;;;0.85;;
27925;SDS011;15267;47.838;12.128;2023-09-19T12:29:45;1.02;;;0.93;;
27925;SDS011;15267;47.838;12.128;2023-09-19T12:32:11;1.42;;;0.77;;
27925;SDS011;15267;47.838;12.128;2023-09-19T12:34:37;0.98;;;0.80;;
27925;SDS011;15267;47.838;12.128;2023-09-19T12:37:10;2.05;;;0.93;;
27925;SDS011;15267;47.838;12.128;2023-09-19T12:39:38;1.10;;;0.77;;
27925;SDS011;15267;47.838;12.128;2023-09-19T12:42:06;3.60;;;1.00;;
27925;SDS011;15267;47.838;12.128;2023-09-19T12:44:34;3.60;;;0.85;;
27925;SDS011;15267;47.838;12.128;2023-09-19T12:47:00;2.03;;;0.80;;
27925;SDS011;15267;47.838;12.128;2023-09-19T12:49:26;1.17;;;0.70;;
27925;SDS011;15267;47.838;12.128;2023-09-19T12:51:54;1.63;;;0.82;;
27925;SDS011;15267;47.838;12.128;2023-09-19T12:54:21;1.27;;;0.70;;
27925;SDS011;15267;47.838;12.128;2023-09-19T12:56:48;1.00;;;0.70;;
27925;SDS011;15267;47.838;12.128;2023-09-19T12:59:15;1.70;;;0.63;;
27925;SDS011;15267;47.838;12.128;2023-09-19T13:01:41;0.93;;;0.70;;
27925;SDS011;15267;47.838;12.128;2023-09-19T13:04:21;0.85;;;0.60;;
27925;SDS011;15267;47.838;12.128;2023-09-19T13:06:53;1.30;;;0.55;;
27925;SDS011;15267;47.838;12.128;2023-09-19T13:09:20;1.73;;;0.88;;
27925;SDS011;15267;47.838;12.128;2023-09-19T13:11:46;0.77;;;0.60;;
27925;SDS011;15267;47.838;12.128;2023-09-19T13:14:21;0.85;;;0.73;;
27925;SDS011;15267;47.838;12.128;2023-09-19T13:24:58;1.50;;;0.70;;
27925;SDS011;15267;47.838;12.128;2023-09-19T13:27:25;6.32;;;1.00;;
27925;SDS011;15267;47.838;12.128;2023-09-19T13:29:52;0.70;;;0.60;;
27925;SDS011;15267;47.838;12.128;2023-09-19T13:32:18;1.73;;;0.73;;
27925;SDS011;15267;47.838;12.128;2023-09-19T13:34:44;1.45;;;0.90;;
27925;SDS011;15267;47.838;12.128;2023-09-19T13:37:10;1.77;;;0.73;;
27925;SDS011;15267;47.838;12.128;2023-09-19T13:39:38;1.70;;;0.70;;
27925;SDS011;15267;47.838;12.128;2023-09-19T13:42:08;1.08;;;0.70;;
27925;SDS011;15267;47.838;12.128;2023-09-19T13:44:36;1.00;;;0.90;;
27925;SDS011;15267;47.838;12.128;2023-09-19T13:47:03;1.27;;;0.70;;
27925;SDS011;15267;47.838;12.128;2023-09-19T13:49:34;2.53;;;0.60;;
27925;SDS011;15267;47.838;12.128;2023-09-19T13:52:01;0.60;;;0.60;;
27925;SDS011;15267;47.838;12.128;2023-09-19T13:54:30;2.42;;;0.70;;
27925;SDS011;15267;47.838;12.128;2023-09-19T13:56:56;1.25;;;0.65;;
27925;SDS011;15267;47.838;12.128;2023-09-19T13:59:22;0.60;;;0.50;;
27925;SDS011;15267;47.838;12.128;2023-09-19T14:01:51;0.60;;;0.50;;
27925;SDS011;15267;47.838;12.128;2023-09-19T14:04:18;1.65;;;0.52;;
27925;SDS011;15267;47.838;12.128;2023-09-19T14:06:44;0.63;;;0.60;;
27925;SDS011;15267;47.838;12.128;2023-09-19T14:09:11;0.70;;;0.57;;
27925;SDS011;15267;47.838;12.128;2023-09-19T14:11:38;1.60;;;0.70;;
27925;SDS011;15267;47.838;12.128;2023-09-19T14:14:04;3.28;;;0.55;;
27925;SDS011;15267;47.838;12.128;2023-09-19T14:16:30;1.88;;;0.82;;
27925;SDS011;15267;47.838;12.128;2023-09-19T14:18:58;1.00;;;0.50;;
27925;SDS011;15267;47.838;12.128;2023-09-19T14:21:25;1.40;;;0.60;;
27925;SDS011;15267;47.838;12.128;2023-09-19T14:23:51;0.73;;;0.60;;
27925;SDS011;15267;47.838;12.128;2023-09-19T14:26:19;1.98;;;0.55;;
27925;SDS011;15267;47.838;12.128;2023-09-19T14:28:45;1.13;;;0.80;;
27925;SDS011;15267;47.838;12.128;2023-09-19T14:31:11;1.23;;;0.70;;
27925;SDS011;15267;47.838;12.128;2023-09-19T14:33:37;1.25;;;0.60;;
27925;SDS011;15267;47.838;12.128;2023-09-19T14:36:07;0.85;;;0.43;;
27925;SDS011;15267;47.838;12.128;2023-09-19T14:38:34;1.52;;;0.68;;
27925;SDS011;15267;47.838;12.128;2023-09-19T14:41:01;1.27;;;0.70;;
27925;SDS011;15267;47.838;12.128;2023-09-19T14:43:27;1.02;;;0.60;;
27925;SDS011;15267;47.838;12.128;2023-09-19T14:45:55;2.00;;;0.68;;
27925;SDS011;15267;47.838;12.128;2023-09-19T14:48:22;1.23;;;0.65;;
27925;SDS011;15267;47.838;12.128;2023-09-19T14:50:50;1.08;;;0.60;;
27925;SDS011;15267;47.838;12.128;2023-09-19T14:53:16;1.83;;;0.65;;
27925;SDS011;15267;47.838;12.128;2023-09-19T14:55:42;2.20;;;0.82;;
27925;SDS011;15267;47.838;12.128;2023-09-19T14:58:10;2.10;;;0.68;;
27925;SDS011;15267;47.838;12.128;2023-09-19T15:00:37;0.82;;;0.73;;
27925;SDS011;15267;47.838;12.128;2023-09-19T15:03:04;0.77;;;0.60;;
27925;SDS011;15267;47.838;12.128;2023-09-19T15:05:30;2.05;;;0.60;;
27925;SDS011;15267;47.838;12.128;2023-09-19T15:07:57;1.08;;;0.77;;
27925;SDS011;15267;47.838;12.128;2023-09-19T15:10:23;2.42;;;0.70;;
27925;SDS011;15267;47.838;12.128;2023-09-19T15:12:49;1.27;;;0.65;;
27925;SDS011;15267;47.838;12.128;2023-09-19T15:15:15;1.13;;;0.60;;
27925;SDS011;15267;47.838;12.128;2023-09-19T15:17:41;1.80;;;1.10;;
27925;SDS011;15267;47.838;12.128;2023-09-19T15:20:07;0.90;;;0.60;;
27925;SDS011;15267;47.838;12.128;2023-09-19T15:22:33;1.48;;;0.60;;
27925;SDS011;15267;47.838;12.128;2023-09-19T15:25:00;1.67;;;0.80;;
27925;SDS011;15267;47.838;12.128;2023-09-19T15:27:27;0.98;;;0.82;;
27925;SDS011;15267;47.838;12.128;2023-09-19T15:29:53;1.38;;;0.70;;